Time;durP1;ratioP1;P1;durP2;ratioP2;P2;SDS_P1;SDS_P2;PMS_P1;PMS_P2;Temp;Humidity;BMP_temperature;BMP_pressure;BME280_temperature;BME280_humidity;BME280_pressure;Samples;Min_cycle;Max_cycle;Signal;HPM_P1;HPM_P2
2022/06/23 00:01:53;;;;;;;;;;;;;;;17.93;90.36;96163.13;5096236;28;19967;-73
2022/06/23 00:04:21;;;;;;;;;;;;;;;17.90;90.23;96158.38;5096043;28;19971;-72
2022/06/23 00:06:53;;;;;;;;;;;;;;;17.87;90.36;96156.25;5096076;28;19952;-72
2022/06/23 00:09:28;;;;;;;;;;;;;;;17.83;90.19;96161.31;5095861;28;19993;-72
2022/06/23 00:11:55;;;;;;;;;;;;;;;17.81;90.02;96166.06;5096053;28;19960;-72
2022/06/23 00:14:21;;;;;;;;;;;;;;;17.79;89.98;96165.53;5095963;28;19990;-72
2022/06/23 00:16:46;;;;;;;;;;;;;;;17.78;90.62;96166.59;5095991;28;19972;-72
2022/06/23 00:19:13;;;;;;;;;;;;;;;17.77;90.64;96170.31;5095764;28;19963;-72
2022/06/23 00:21:41;;;;;;;;;;;;;;;17.74;90.89;96173.50;5096015;28;19962;-72
2022/06/23 00:24:14;;;;;;;;;;;;;;;17.72;91.04;96172.97;5095734;28;19972;-72
2022/06/23 00:26:40;;;;;;;;;;;;;;;17.70;91.07;96169.81;5095899;28;19988;-72
2022/06/23 00:29:09;;;;;;;;;;;;;;;17.68;91.50;96166.63;5094982;28;20439;-72
2022/06/23 00:31:52;;;;;;;;;;;;;;;17.63;91.25;96149.66;5082052;28;20326;-72
2022/06/23 00:34:22;;;;;;;;;;;;;;;17.61;90.90;96143.84;5095590;28;19996;-72
2022/06/23 00:36:49;;;;;;;;;;;;;;;17.60;91.01;96146.78;5095478;28;19960;-72
2022/06/23 00:39:34;;;;;;;;;;;;;;;17.57;90.59;96148.09;5095532;28;19965;-72
2022/06/23 00:42:02;;;;;;;;;;;;;;;17.54;90.58;96143.34;5095599;28;19951;-72
2022/06/23 00:44:31;;;;;;;;;;;;;;;17.52;91.00;96145.47;5095363;28;20342;-72
2022/06/23 00:46:59;;;;;;;;;;;;;;;17.49;90.64;96146.00;5095620;28;20416;-72
2022/06/23 00:49:39;;;;;;;;;;;;;;;17.47;90.62;96142.03;5095153;28;20462;-72
2022/06/23 00:52:18;;;;;;;;;;;;;;;17.44;90.69;96146.00;5095411;28;20443;-72
2022/06/23 00:54:47;;;;;;;;;;;;;;;17.42;90.75;96145.47;5095668;28;19966;-72
2022/06/23 00:57:19;;;;;;;;;;;;;;;17.41;90.69;96144.69;5095281;28;19965;-72
2022/06/23 00:59:54;;;;;;;;;;;;;;;17.41;90.91;96151.84;5095271;28;19960;-72
2022/06/23 01:02:24;;;;;;;;;;;;;;;17.39;90.84;96153.97;5093892;28;19956;-72
2022/06/23 01:05:02;;;;;;;;;;;;;;;17.38;90.69;96155.81;5094848;28;20400;-72
2022/06/23 01:07:28;;;;;;;;;;;;;;;17.36;91.27;96159.81;5094450;28;19957;-72
2022/06/23 01:09:57;;;;;;;;;;;;;;;17.34;90.76;96164.56;5094889;28;19970;-72
2022/06/23 01:12:42;;;;;;;;;;;;;;;17.31;90.94;96167.78;5094804;28;19966;-73
2022/06/23 01:15:27;;;;;;;;;;;;;;;17.28;90.82;96174.38;5084032;28;20185;-72
2022/06/23 01:17:59;;;;;;;;;;;;;;;17.24;90.51;96176.00;5094649;28;20327;-72
2022/06/23 01:20:31;;;;;;;;;;;;;;;17.20;90.59;96175.72;5094716;28;19972;-72
2022/06/23 01:23:00;;;;;;;;;;;;;;;17.17;90.36;96176.25;5094250;28;20337;-72
2022/06/23 01:25:38;;;;;;;;;;;;;;;17.14;89.96;96182.09;5095098;28;19958;-72
2022/06/23 01:28:07;;;;;;;;;;;;;;;17.12;90.05;96176.28;5094131;28;19955;-72
2022/06/23 01:30:48;;;;;;;;;;;;;;;17.09;90.55;96179.44;5094348;28;19983;-72
2022/06/23 01:33:20;;;;;;;;;;;;;;;17.06;90.20;96179.19;5094590;28;19961;-72
2022/06/23 01:35:52;;;;;;;;;;;;;;;17.03;90.27;96169.94;5094725;28;19976;-73
2022/06/23 01:38:22;;;;;;;;;;;;;;;17.01;90.30;96169.41;5081650;28;19967;-72
2022/06/23 01:40:54;;;;;;;;;;;;;;;16.98;90.24;96173.34;5094311;28;20340;-72
2022/06/23 01:43:28;;;;;;;;;;;;;;;16.97;89.72;96168.34;5094506;28;19971;-72
2022/06/23 01:46:14;;;;;;;;;;;;;;;16.98;90.86;96180.50;5094243;28;20428;-72
2022/06/23 01:48:53;;;;;;;;;;;;;;;16.96;91.05;96182.63;5094123;28;19997;-72
2022/06/23 01:51:21;;;;;;;;;;;;;;;16.93;91.62;96186.59;5094214;28;19973;-72
2022/06/23 01:53:48;;;;;;;;;;;;;;;16.92;92.44;96186.84;5094187;28;19957;-72
2022/06/23 01:56:26;;;;;;;;;;;;;;;16.88;92.28;96173.34;5094002;28;20411;-72
2022/06/23 01:59:11;;;;;;;;;;;;;;;16.88;92.31;96178.63;5094776;28;19955;-72
2022/06/23 02:01:47;;;;;;;;;;;;;;;16.87;92.77;96177.06;5080119;28;19958;-72
2022/06/23 02:04:21;;;;;;;;;;;;;;;16.87;92.83;96181.56;5094225;28;19974;-72
2022/06/23 02:06:55;;;;;;;;;;;;;;;16.87;93.22;96184.22;5093746;28;19962;-72
2022/06/23 02:09:29;;;;;;;;;;;;;;;16.87;92.71;96187.66;5093877;28;19972;-72
2022/06/23 02:11:56;;;;;;;;;;;;;;;16.85;92.63;96189.78;5094124;28;20326;-72
2022/06/23 02:14:28;;;;;;;;;;;;;;;16.85;93.11;96195.06;5093573;28;19998;-72
2022/06/23 02:16:57;;;;;;;;;;;;;;;16.83;92.75;96190.03;5093937;28;19977;-72
2022/06/23 02:19:23;;;;;;;;;;;;;;;16.82;91.88;96193.75;5093581;28;19988;-72
2022/06/23 02:21:51;;;;;;;;;;;;;;;16.81;92.37;96196.66;5094154;28;19990;-72
2022/06/23 02:24:25;;;;;;;;;;;;;;;16.78;92.55;96192.66;5093600;28;19972;-72
2022/06/23 02:26:57;;;;;;;;;;;;;;;16.77;92.41;96198.22;5093989;28;20425;-72
2022/06/23 02:29:27;;;;;;;;;;;;;;;16.75;92.62;96198.47;5093504;28;19980;-72
2022/06/23 02:32:02;;;;;;;;;;;;;;;16.72;92.35;96203.50;5093495;28;19963;-72
2022/06/23 02:34:31;;;;;;;;;;;;;;;16.70;92.23;96206.41;5093737;28;19964;-72
2022/06/23 02:37:00;;;;;;;;;;;;;;;16.70;92.54;96219.66;5093390;28;19967;-72
2022/06/23 02:39:31;;;;;;;;;;;;;;;16.70;92.26;96205.63;5093554;28;20319;-72
2022/06/23 02:42:03;;;;;;;;;;;;;;;16.69;92.19;96212.75;5093711;28;19957;-72
2022/06/23 02:44:55;;;;;;;;;;;;;;;16.68;92.31;96210.38;5093628;28;20035;-72
2022/06/23 02:47:33;;;;;;;;;;;;;;;16.66;92.11;96212.50;5080420;28;19981;-72
2022/06/23 02:49:59;;;;;;;;;;;;;;;16.63;91.51;96219.09;5093356;28;19963;-72
2022/06/23 02:52:25;;;;;;;;;;;;;;;16.61;91.95;96221.22;5093442;28;20297;-72
2022/06/23 02:55:14;;;;;;;;;;;;;;;16.59;92.15;96220.69;5093323;28;19969;-72
2022/06/23 02:57:45;;;;;;;;;;;;;;;16.58;92.09;96222.53;5093502;28;19971;-72
2022/06/23 03:00:11;;;;;;;;;;;;;;;16.56;92.53;96218.56;5093317;28;19955;-72
2022/06/23 03:02:41;;;;;;;;;;;;;;;16.55;92.42;96230.22;5093368;28;20332;-72
2022/06/23 03:05:16;;;;;;;;;;;;;;;16.53;92.38;96235.75;5093931;28;19971;-72
2022/06/23 03:07:49;;;;;;;;;;;;;;;16.52;91.74;96234.16;5093203;28;20329;-71
2022/06/23 03:10:20;;;;;;;;;;;;;;;16.51;92.17;96232.59;5093224;28;20423;-72
2022/06/23 03:13:08;;;;;;;;;;;;;;;16.53;91.94;96237.63;5093159;28;19966;-73
2022/06/23 03:15:47;;;;;;;;;;;;;;;16.52;92.11;96243.97;5093654;28;20449;-72
2022/06/23 03:18:20;;;;;;;;;;;;;;;16.52;91.89;96241.31;5093466;28;19968;-72
2022/06/23 03:20:58;;;;;;;;;;;;;;;16.51;92.40;96235.22;5092791;28;19963;-72
2022/06/23 03:23:27;;;;;;;;;;;;;;;16.51;92.71;96245.03;5093406;28;19978;-72
2022/06/23 03:26:02;;;;;;;;;;;;;;;16.50;91.88;96240.78;5094908;28;19965;-72
2022/06/23 03:28:40;;;;;;;;;;;;;;;16.49;91.97;96239.19;5097205;28;20443;-71
2022/06/23 03:31:15;;;;;;;;;;;;;;;16.48;91.88;96243.69;5088021;28;19952;-71
2022/06/23 03:33:41;;;;;;;;;;;;;;;16.46;91.61;96239.69;5096724;28;19963;-71
2022/06/23 03:36:25;;;;;;;;;;;;;;;16.46;91.79;96235.19;5096698;28;19960;-72
2022/06/23 03:42:03;;;;;;;;;;;;;;;16.47;91.54;96231.50;5096661;28;20401;-71
2022/06/23 03:44:37;;;;;;;;;;;;;;;16.45;92.28;96236.28;5096969;28;19981;-71
2022/06/23 03:47:04;;;;;;;;;;;;;;;16.44;92.22;96238.13;5096613;28;19976;-71
2022/06/23 03:49:50;;;;;;;;;;;;;;;16.43;93.71;96231.22;5096215;28;20464;-72
2022/06/23 03:52:22;;;;;;;;;;;;;;;16.43;94.24;96238.38;5088781;28;19961;-72
2022/06/23 03:55:11;;;;;;;;;;;;;;;16.43;95.43;96236.53;5096305;28;19964;-71
2022/06/23 03:57:41;;;;;;;;;;;;;;;16.44;97.30;96243.41;5089854;28;19964;-72
2022/06/23 04:00:28;;;;;;;;;;;;;;;16.49;97.50;96247.13;5096388;28;20419;-72
2022/06/23 04:03:12;;;;;;;;;;;;;;;16.51;98.43;96250.31;5095678;28;19966;-72
2022/06/23 04:05:57;;;;;;;;;;;;;;;16.54;98.60;96255.88;5096218;28;19967;-72
2022/06/23 04:08:24;;;;;;;;;;;;;;;16.58;99.18;96248.22;5081601;28;19960;-72
2022/06/23 04:10:52;;;;;;;;;;;;;;;16.60;99.61;96252.19;5096006;28;20437;-71
2022/06/23 04:13:24;;;;;;;;;;;;;;;16.61;99.79;96255.66;5096088;28;19965;-72
2022/06/23 04:15:53;;;;;;;;;;;;;;;16.62;100.00;96258.00;5095803;28;19999;-72
2022/06/23 04:18:21;;;;;;;;;;;;;;;16.63;99.86;96261.44;5095732;28;19952;-72
2022/06/23 04:20:53;;;;;;;;;;;;;;;16.63;99.14;96258.81;5096385;28;20003;-72
2022/06/23 04:23:21;;;;;;;;;;;;;;;16.62;99.66;96262.53;5095922;28;19970;-72
2022/06/23 04:25:50;;;;;;;;;;;;;;;16.62;99.77;96262.53;5095925;28;19960;-72
2022/06/23 04:28:27;;;;;;;;;;;;;;;16.62;99.49;96263.31;5095834;28;19963;-72
2022/06/23 04:30:55;;;;;;;;;;;;;;;16.62;99.72;96268.59;5095771;28;20453;-72
2022/06/23 04:33:22;;;;;;;;;;;;;;;16.63;99.72;96267.56;5095751;28;19967;-72
2022/06/23 04:35:50;;;;;;;;;;;;;;;16.63;98.98;96264.91;5095277;28;20334;-72
2022/06/23 04:38:21;;;;;;;;;;;;;;;16.66;98.85;96260.94;5095255;28;19958;-72
2022/06/23 04:40:49;;;;;;;;;;;;;;;16.66;99.44;96252.22;5095485;28;20020;-72
2022/06/23 04:43:21;;;;;;;;;;;;;;;16.77;98.96;96256.47;5095195;28;19973;-72
2022/06/23 04:45:50;;;;;;;;;;;;;;;16.85;97.33;96261.28;5095407;28;19971;-73
2022/06/23 04:48:20;;;;;;;;;;;;;;;16.93;97.78;96268.72;5095844;28;19967;-72
2022/06/23 04:50:49;;;;;;;;;;;;;;;16.96;97.31;96268.19;5095199;28;19984;-72
2022/06/23 04:53:37;;;;;;;;;;;;;;;16.98;96.60;96266.06;5095085;28;19968;-73
2022/06/23 04:56:08;;;;;;;;;;;;;;;17.02;96.35;96271.63;5075500;28;19962;-72
2022/06/23 04:58:36;;;;;;;;;;;;;;;17.04;97.30;96275.59;5095201;28;19953;-73
2022/06/23 05:01:02;;;;;;;;;;;;;;;17.11;97.34;96277.22;5095139;28;19958;-73
2022/06/23 05:03:33;;;;;;;;;;;;;;;17.16;97.48;96285.19;5095457;28;19958;-72
2022/06/23 05:06:05;;;;;;;;;;;;;;;17.19;97.63;96287.28;5095095;28;19961;-73
2022/06/23 05:08:32;;;;;;;;;;;;;;;17.20;97.82;96278.28;5094911;28;19968;-73
2022/06/23 05:11:12;;;;;;;;;;;;;;;17.16;98.14;96282.53;5094706;28;19973;-73
2022/06/23 05:13:48;;;;;;;;;;;;;;;17.11;98.04;96278.00;5095065;28;19970;-73
2022/06/23 05:16:19;;;;;;;;;;;;;;;17.05;100.00;96279.06;5094920;28;19963;-73
2022/06/23 05:18:47;;;;;;;;;;;;;;;16.99;100.00;96278.25;5094935;28;19956;-73
2022/06/23 05:21:17;;;;;;;;;;;;;;;17.02;100.00;96280.38;5094761;28;19959;-73
2022/06/23 05:23:45;;;;;;;;;;;;;;;17.06;100.00;96278.00;5094557;28;19963;-73
2022/06/23 05:26:21;;;;;;;;;;;;;;;17.11;100.00;96277.22;5094826;28;19965;-73
2022/06/23 05:28:50;;;;;;;;;;;;;;;17.18;99.31;96283.06;5094636;28;20329;-73
2022/06/23 05:31:40;;;;;;;;;;;;;;;17.30;98.97;96277.50;5089436;28;19975;-73
2022/06/23 05:34:08;;;;;;;;;;;;;;;17.41;98.37;96277.25;5094388;28;20424;-73
2022/06/23 05:36:42;;;;;;;;;;;;;;;17.54;98.07;96275.91;5094371;28;19963;-72
2022/06/23 05:39:22;;;;;;;;;;;;;;;17.60;97.76;96274.06;5094401;28;20436;-72
2022/06/23 05:41:51;;;;;;;;;;;;;;;17.66;97.43;96278.28;5094580;28;20419;-72
2022/06/23 05:44:28;;;;;;;;;;;;;;;17.74;96.99;96280.38;5094123;28;19980;-73
2022/06/23 05:46:57;;;;;;;;;;;;;;;17.87;97.88;96281.75;5094304;28;20332;-73
2022/06/23 05:49:26;;;;;;;;;;;;;;;18.08;97.23;96281.66;5093407;28;20451;-73
2022/06/23 05:52:21;;;;;;;;;;;;;;;18.36;96.12;96285.59;5094176;28;19955;-73
2022/06/23 05:54:46;;;;;;;;;;;;;;;18.52;95.32;96286.28;5091967;28;19968;-73
2022/06/23 05:57:18;;;;;;;;;;;;;;;18.62;94.23;96283.59;5094161;28;20029;-73
2022/06/23 06:00:04;;;;;;;;;;;;;;;18.71;93.97;96294.44;5093948;28;19967;-72
2022/06/23 06:02:33;;;;;;;;;;;;;;;18.72;92.90;96286.22;5094084;28;19950;-73
2022/06/23 06:05:00;;;;;;;;;;;;;;;18.64;93.20;96284.91;5094231;28;20022;-73
2022/06/23 06:07:31;;;;;;;;;;;;;;;18.69;95.49;96284.13;5093896;28;19970;-72
2022/06/23 06:09:57;;;;;;;;;;;;;;;18.86;92.86;96281.91;5082086;28;19980;-71
2022/06/23 06:12:34;;;;;;;;;;;;;;;18.94;92.01;96280.56;5093705;28;19989;-71
2022/06/23 06:15:07;;;;;;;;;;;;;;;19.10;92.27;96286.53;5093930;28;19982;-72
2022/06/23 06:17:33;;;;;;;;;;;;;;;19.47;91.62;96285.22;5093770;28;19960;-71
2022/06/23 06:20:03;;;;;;;;;;;;;;;19.85;89.30;96288.13;5093842;28;19965;-71
2022/06/23 06:22:31;;;;;;;;;;;;;;;20.17;89.04;96289.38;5093766;28;19977;-72
2022/06/23 06:24:58;;;;;;;;;;;;;;;20.38;84.33;96284.63;5093536;28;19968;-71
2022/06/23 06:27:24;;;;;;;;;;;;;;;20.51;82.92;96289.25;5094182;28;19971;-72
2022/06/23 06:29:50;;;;;;;;;;;;;;;20.63;83.32;96291.53;5093403;28;20393;-72
2022/06/23 06:32:33;;;;;;;;;;;;;;;20.93;81.18;96284.22;5093703;28;19982;-72
2022/06/23 06:35:05;;;;;;;;;;;;;;;21.07;80.92;96282.41;5093637;28;19960;-72
2022/06/23 06:37:33;;;;;;;;;;;;;;;21.24;80.27;96279.22;5093460;28;20119;-71
2022/06/23 06:40:03;;;;;;;;;;;;;;;21.28;79.24;96280.25;5093378;28;20023;-71
2022/06/23 06:42:38;;;;;;;;;;;;;;;21.34;77.17;96275.63;5093554;28;19963;-72
2022/06/23 06:45:07;;;;;;;;;;;;;;;21.54;77.38;96274.53;5093228;28;19966;-71
2022/06/23 06:47:35;;;;;;;;;;;;;;;21.79;77.67;96270.63;5093390;28;19976;-73
2022/06/23 06:50:23;;;;;;;;;;;;;;;22.03;75.98;96271.25;5093359;28;19965;-73
2022/06/23 06:52:51;;;;;;;;;;;;;;;22.31;74.06;96278.53;5078892;28;19955;-72
2022/06/23 06:55:17;;;;;;;;;;;;;;;22.23;70.03;96246.06;5093979;28;19970;-73
2022/06/23 06:57:47;;;;;;;;;;;;;;;22.26;73.27;96279.41;5093222;28;19981;-73
2022/06/23 07:00:18;;;;;;;;;;;;;;;22.40;75.11;96282.06;5095647;28;19958;-73
2022/06/23 07:02:49;;;;;;;;;;;;;;;22.61;72.95;96274.44;5097513;28;20415;-73
2022/06/23 07:05:21;;;;;;;;;;;;;;;22.87;69.78;96261.31;5097600;28;19965;-73
2022/06/23 07:07:51;;;;;;;;;;;;;;;22.97;70.88;96266.41;5097135;28;19960;-73
2022/06/23 07:10:30;;;;;;;;;;;;;;;23.02;71.78;96276.25;5097372;28;19975;-72
2022/06/23 07:12:58;;;;;;;;;;;;;;;23.18;69.78;96256.09;5097081;28;19961;-72
2022/06/23 07:15:36;;;;;;;;;;;;;;;23.36;69.36;96261.56;5096928;28;19990;-72
2022/06/23 07:18:22;;;;;;;;;;;;;;;23.39;68.58;96252.91;5086386;28;20335;-72
2022/06/23 07:21:08;;;;;;;;;;;;;;;23.36;68.48;96253.53;5096482;28;19964;-72
2022/06/23 07:23:40;;;;;;;;;;;;;;;23.32;70.56;96261.38;5096282;28;19972;-72
2022/06/23 07:26:24;;;;;;;;;;;;;;;23.48;68.83;96243.88;5097257;28;19975;-72
2022/06/23 07:28:52;;;;;;;;;;;;;;;23.63;70.24;96250.72;5096965;28;19976;-72
2022/06/23 07:31:26;;;;;;;;;;;;;;;23.70;66.71;96234.22;5097044;28;20473;-72
2022/06/23 07:33:52;;;;;;;;;;;;;;;23.82;69.67;96250.53;5096655;28;19967;-72
2022/06/23 07:36:38;;;;;;;;;;;;;;;23.96;66.91;96230.88;5096732;28;20341;-72
2022/06/23 07:39:10;;;;;;;;;;;;;;;24.11;65.35;96217.88;5088980;28;19971;-72
2022/06/23 07:41:41;;;;;;;;;;;;;;;24.07;65.52;96218.81;5096724;28;19962;-72
2022/06/23 07:44:07;;;;;;;;;;;;;;;24.02;64.89;96211.72;5096214;28;19970;-72
2022/06/23 07:46:34;;;;;;;;;;;;;;;23.94;63.51;96212.47;5096243;28;19973;-73
2022/06/23 07:49:00;;;;;;;;;;;;;;;23.97;63.99;96216.41;5096833;28;19974;-72
2022/06/23 07:51:26;;;;;;;;;;;;;;;24.07;62.24;96208.88;5096188;28;20005;-72
2022/06/23 07:53:54;;;;;;;;;;;;;;;24.00;62.75;96211.22;5096627;28;19970;-73
2022/06/23 07:56:22;;;;;;;;;;;;;;;24.23;64.90;96225.34;5096275;28;20441;-73
2022/06/23 07:58:49;;;;;;;;;;;;;;;24.48;60.23;96185.47;5096338;28;19967;-73
2022/06/23 08:01:23;;;;;;;;;;;;;;;24.59;62.20;96204.75;5095858;28;20046;-73
2022/06/23 08:04:07;;;;;;;;;;;;;;;24.64;62.37;96205.41;5096529;28;19970;-73
2022/06/23 08:06:35;;;;;;;;;;;;;;;24.59;59.81;96178.75;5095639;28;19957;-73
2022/06/23 08:09:04;;;;;;;;;;;;;;;24.66;60.52;96192.47;5095999;28;19958;-73
2022/06/23 08:14:22;;;;;;;;;;;;;;;24.87;60.29;96184.56;5096009;28;20346;-73
2022/06/23 08:16:51;;;;;;;;;;;;;;;24.95;60.74;96179.50;5096108;28;20433;-73
2022/06/23 08:19:29;;;;;;;;;;;;;;;24.94;60.41;96177.94;5095714;28;20345;-73
2022/06/23 08:22:04;;;;;;;;;;;;;;;25.01;60.54;96173.69;5087403;28;19961;-73
2022/06/23 08:24:32;;;;;;;;;;;;;;;25.12;59.30;96161.50;5087882;28;19964;-73
2022/06/23 08:27:07;;;;;;;;;;;;;;;25.14;57.76;96150.47;5095894;28;19991;-73
2022/06/23 08:29:56;;;;;;;;;;;;;;;25.04;55.90;96132.00;5095598;28;19955;-73
2022/06/23 08:32:23;;;;;;;;;;;;;;;25.10;60.16;96174.44;5090130;28;19977;-73
2022/06/23 08:35:03;;;;;;;;;;;;;;;25.22;59.20;96165.78;5095459;28;19969;-73
2022/06/23 08:37:34;;;;;;;;;;;;;;;25.40;58.75;96153.09;5095673;28;19998;-73
2022/06/23 08:40:04;;;;;;;;;;;;;;;25.47;55.76;96120.38;5095531;28;19962;-73
2022/06/23 08:42:38;;;;;;;;;;;;;;;25.55;57.43;96133.00;5095502;28;20400;-72
2022/06/23 08:45:18;;;;;;;;;;;;;;;25.54;56.43;96123.38;5095187;28;19967;-72
2022/06/23 08:47:44;;;;;;;;;;;;;;;25.54;55.32;96103.81;5095322;28;19964;-73
2022/06/23 08:50:16;;;;;;;;;;;;;;;25.51;52.28;96079.16;5095206;28;19973;-72
2022/06/23 08:52:55;;;;;;;;;;;;;;;25.42;54.16;96097.19;5094181;28;20415;-73
2022/06/23 08:55:26;;;;;;;;;;;;;;;25.52;55.54;96117.53;5095322;28;19952;-73
2022/06/23 08:57:56;;;;;;;;;;;;;;;25.60;55.33;96110.53;5095567;28;19965;-72
2022/06/23 09:00:39;;;;;;;;;;;;;;;25.66;53.85;96088.56;5095058;28;19967;-73
2022/06/23 09:03:19;;;;;;;;;;;;;;;25.73;53.03;96080.78;5095298;28;19966;-73
2022/06/23 09:05:53;;;;;;;;;;;;;;;25.82;54.90;96102.22;5094906;28;19967;-73
2022/06/23 09:08:22;;;;;;;;;;;;;;;25.95;52.17;96075.47;5095038;28;19955;-73
2022/06/23 09:10:47;;;;;;;;;;;;;;;25.99;53.27;96079.09;5095000;28;19975;-73
2022/06/23 09:13:13;;;;;;;;;;;;;;;26.00;55.17;96092.19;5094742;28;20423;-73
2022/06/23 09:16:03;;;;;;;;;;;;;;;26.07;55.48;96094.34;5095414;28;19988;-73
2022/06/23 09:18:32;;;;;;;;;;;;;;;26.06;51.16;96050.59;5094583;28;19960;-73
2022/06/23 09:21:17;;;;;;;;;;;;;;;26.08;51.27;96058.31;5094849;28;19962;-75
2022/06/23 09:23:55;;;;;;;;;;;;;;;26.01;52.94;96068.78;5093708;28;19957;-73
2022/06/23 09:26:24;;;;;;;;;;;;;;;26.06;52.20;96063.22;5094442;28;19967;-73
2022/06/23 09:28:55;;;;;;;;;;;;;;;26.21;53.86;96078.00;5094484;28;19992;-73
2022/06/23 09:31:29;;;;;;;;;;;;;;;26.32;51.87;96055.75;5094587;28;19987;-73
2022/06/23 09:34:12;;;;;;;;;;;;;;;26.35;53.26;96067.75;5094374;28;19965;-73
2022/06/23 09:36:57;;;;;;;;;;;;;;;26.46;50.78;96030.50;5094650;28;19998;-73
2022/06/23 09:39:29;;;;;;;;;;;;;;;26.56;52.97;96064.25;5094184;28;19954;-73
2022/06/23 09:42:15;;;;;;;;;;;;;;;26.60;48.18;96014.09;5094308;28;19967;-73
2022/06/23 09:44:59;;;;;;;;;;;;;;;26.51;49.05;96017.63;5072763;28;20332;-73
2022/06/23 09:47:54;;;;;;;;;;;;;;;26.52;50.64;96043.41;5094098;28;20405;-73
2022/06/23 09:50:32;;;;;;;;;;;;;;;26.48;46.29;96004.84;5084724;28;19984;-73
2022/06/23 09:52:58;;;;;;;;;;;;;;;26.50;49.46;96016.06;5094289;28;19962;-73
2022/06/23 09:55:28;;;;;;;;;;;;;;;26.58;50.22;96027.88;5093975;28;19961;-73
2022/06/23 09:58:02;;;;;;;;;;;;;;;26.72;50.53;96022.19;5094066;28;20332;-73
2022/06/23 10:00:41;;;;;;;;;;;;;;;26.93;49.98;96019.44;5093961;28;19959;-73
2022/06/23 10:03:10;;;;;;;;;;;;;;;27.10;49.20;96015.75;5094189;28;20007;-73
2022/06/23 10:05:35;;;;;;;;;;;;;;;27.24;49.44;96013.56;5093872;28;19959;-73
2022/06/23 10:08:20;;;;;;;;;;;;;;;27.40;48.58;96008.28;5094150;28;20481;-73
2022/06/23 10:11:05;;;;;;;;;;;;;;;27.42;46.65;95987.19;5083160;28;19997;-74
2022/06/23 10:13:39;;;;;;;;;;;;;;;27.50;47.08;95996.28;5093759;28;19965;-73
2022/06/23 10:16:18;;;;;;;;;;;;;;;27.63;46.38;95986.25;5093878;28;19969;-74
2022/06/23 10:18:58;;;;;;;;;;;;;;;27.68;47.43;96005.69;5094248;28;19961;-73
2022/06/23 10:21:37;;;;;;;;;;;;;;;27.75;47.57;96018.56;5093802;28;20327;-73
2022/06/23 10:24:19;;;;;;;;;;;;;;;27.89;47.29;96021.72;5093596;28;19956;-73
2022/06/23 10:27:04;;;;;;;;;;;;;;;28.09;47.28;96028.06;5093591;28;20307;-73
2022/06/23 10:29:32;;;;;;;;;;;;;;;28.29;48.18;96034.41;5093545;28;19955;-73
2022/06/23 10:32:07;;;;;;;;;;;;;;;28.43;47.95;96036.75;5093588;28;19982;-73
2022/06/23 10:34:45;;;;;;;;;;;;;;;28.50;43.53;96012.66;5093218;28;19965;-73
2022/06/23 10:37:14;;;;;;;;;;;;;;;28.28;44.33;96051.72;5093386;28;19965;-73
2022/06/23 10:39:40;;;;;;;;;;;;;;;28.11;44.94;96071.63;5093658;28;19961;-73
2022/06/23 10:42:09;;;;;;;;;;;;;;;28.12;44.93;96067.84;5093528;28;19967;-73
2022/06/23 10:44:54;;;;;;;;;;;;;;;28.12;44.73;96059.75;5093633;28;19971;-73
2022/06/23 10:47:25;;;;;;;;;;;;;;;28.28;46.88;96072.50;5093345;28;19959;-73
2022/06/23 10:50:10;;;;;;;;;;;;;;;28.50;44.70;96049.66;5093682;28;19978;-73
2022/06/23 10:52:47;;;;;;;;;;;;;;;28.78;44.86;96052.31;5093313;28;19957;-73
2022/06/23 10:55:22;;;;;;;;;;;;;;;28.92;41.90;96030.34;5093738;28;19962;-73
2022/06/23 10:58:07;;;;;;;;;;;;;;;28.95;45.39;96056.63;5093206;28;19958;-74
2022/06/23 11:00:39;;;;;;;;;;;;;;;29.09;43.42;96050.81;5093557;28;19964;-73
2022/06/23 11:03:08;;;;;;;;;;;;;;;29.04;44.10;96042.94;5093150;28;19954;-73
2022/06/23 11:05:36;;;;;;;;;;;;;;;29.16;44.04;96044.81;5093245;28;19954;-73
2022/06/23 11:08:21;;;;;;;;;;;;;;;29.28;43.92;96040.13;5093178;28;19975;-74
2022/06/23 11:11:07;;;;;;;;;;;;;;;29.47;43.08;96044.03;5093512;28;20001;-74
2022/06/23 11:13:33;;;;;;;;;;;;;;;29.38;43.58;96046.13;5093877;28;19964;-73
2022/06/23 11:16:08;;;;;;;;;;;;;;;29.25;41.33;96023.81;5093508;28;20061;-73
2022/06/23 11:18:42;;;;;;;;;;;;;;;29.29;43.67;96032.78;5092963;28;19965;-74
2022/06/23 11:21:27;;;;;;;;;;;;;;;29.21;41.35;96026.47;5093189;28;19958;-73
2022/06/23 11:24:02;;;;;;;;;;;;;;;29.23;42.43;96023.38;5085294;28;19954;-73
2022/06/23 11:26:43;;;;;;;;;;;;;;;29.39;43.94;96026.09;5092964;28;19975;-73
2022/06/23 11:29:09;;;;;;;;;;;;;;;29.49;42.40;96020.16;5092202;28;19980;-74
2022/06/23 11:31:44;;;;;;;;;;;;;;;29.54;41.90;96020.66;5093019;28;19977;-73
2022/06/23 11:34:29;;;;;;;;;;;;;;;29.69;42.22;96020.97;5092796;28;20315;-73
2022/06/23 11:37:04;;;;;;;;;;;;;;;29.87;39.72;96010.59;5092886;28;20437;-73
2022/06/23 11:39:37;;;;;;;;;;;;;;;29.83;41.66;96018.63;5092853;28;20328;-74
2022/06/23 11:42:18;;;;;;;;;;;;;;;29.95;42.30;96023.13;5093353;28;20442;-73
2022/06/23 11:44:50;;;;;;;;;;;;;;;30.05;40.62;96008.25;5080247;28;20335;-73
2022/06/23 11:47:20;;;;;;;;;;;;;;;30.01;42.60;96010.09;5095043;28;19966;-73
2022/06/23 11:50:01;;;;;;;;;;;;;;;29.91;42.32;96017.63;5096433;28;19981;-74
2022/06/23 11:52:27;;;;;;;;;;;;;;;29.97;38.83;95988.41;5096332;28;19968;-74
2022/06/23 11:55:08;;;;;;;;;;;;;;;29.99;42.79;96010.47;5096167;28;20235;-74
2022/06/23 11:57:55;;;;;;;;;;;;;;;29.61;37.36;95984.13;5096231;28;19962;-73
2022/06/23 12:00:35;;;;;;;;;;;;;;;29.35;42.06;96013.25;5096196;28;19958;-73
2022/06/23 12:03:21;;;;;;;;;;;;;;;29.33;42.34;96015.53;5096063;28;19958;-73
2022/06/23 12:05:57;;;;;;;;;;;;;;;29.50;42.65;96002.78;5096328;28;19952;-73
2022/06/23 12:08:39;;;;;;;;;;;;;;;29.81;40.61;95988.44;5096035;28;19956;-73
2022/06/23 12:11:06;;;;;;;;;;;;;;;29.90;40.34;95985.53;5096006;28;19974;-73
2022/06/23 12:13:33;;;;;;;;;;;;;;;29.99;40.86;95985.34;5095937;28;20030;-73
2022/06/23 12:15:59;;;;;;;;;;;;;;;30.15;41.12;95992.25;5096367;28;19995;-73
2022/06/23 12:18:48;;;;;;;;;;;;;;;30.26;40.54;95984.34;5095900;28;20334;-73
2022/06/23 12:21:27;;;;;;;;;;;;;;;30.42;36.90;95968.06;5088885;28;19965;-74
2022/06/23 12:23:55;;;;;;;;;;;;;;;30.39;37.08;95966.06;5094888;28;19962;-73
2022/06/23 12:26:24;;;;;;;;;;;;;;;30.37;39.53;95981.09;5095897;28;20338;-73
2022/06/23 12:28:49;;;;;;;;;;;;;;;30.40;38.93;95973.03;5095817;28;19964;-74
2022/06/23 12:31:34;;;;;;;;;;;;;;;30.54;40.27;95984.13;5095632;28;20035;-73
2022/06/23 12:34:06;;;;;;;;;;;;;;;30.80;36.42;95952.84;5095710;28;19956;-73
2022/06/23 12:36:46;;;;;;;;;;;;;;;30.99;38.35;95954.75;5095719;28;19958;-74
2022/06/23 12:39:34;;;;;;;;;;;;;;;31.28;37.32;95953.25;5094413;28;19964;-73
2022/06/23 12:42:04;;;;;;;;;;;;;;;31.49;36.71;95943.91;5095617;28;19953;-74
2022/06/23 12:44:33;;;;;;;;;;;;;;;31.66;35.59;95937.94;5095779;28;19965;-74
2022/06/23 12:46:59;;;;;;;;;;;;;;;31.63;34.74;95932.50;5095788;28;20064;-74
2022/06/23 12:49:31;;;;;;;;;;;;;;;31.48;36.96;95937.72;5095251;28;19961;-74
2022/06/23 12:52:00;;;;;;;;;;;;;;;31.43;35.57;95923.66;5095147;28;19964;-73
2022/06/23 12:54:45;;;;;;;;;;;;;;;31.02;35.08;95918.81;5095231;28;20344;-74
2022/06/23 12:57:34;;;;;;;;;;;;;;;30.88;37.14;95926.72;5082277;28;20411;-74
2022/06/23 13:00:06;;;;;;;;;;;;;;;31.00;37.16;95918.41;5094581;28;19954;-73
2022/06/23 13:02:37;;;;;;;;;;;;;;;31.20;37.34;95921.00;5095481;28;19958;-72
2022/06/23 13:05:15;;;;;;;;;;;;;;;31.49;36.77;95904.03;5094883;28;20414;-74
2022/06/23 13:07:45;;;;;;;;;;;;;;;31.71;36.09;95890.78;5095364;28;19956;-73
2022/06/23 13:10:24;;;;;;;;;;;;;;;31.89;35.99;95888.25;5094998;28;19976;-73
2022/06/23 13:13:09;;;;;;;;;;;;;;;32.00;36.22;95881.03;5093532;28;19971;-74
2022/06/23 13:15:44;;;;;;;;;;;;;;;32.05;37.63;95888.84;5094936;28;19989;-74
2022/06/23 13:18:20;;;;;;;;;;;;;;;32.03;34.97;95877.59;5093489;28;20845;-73
2022/06/23 13:20:47;;;;;;;;;;;;;;;31.34;33.98;95878.66;5094729;28;19963;-73
2022/06/23 13:23:18;;;;;;;;;;;;;;;30.85;36.48;95892.22;5094978;28;20413;-73
2022/06/23 13:25:52;;;;;;;;;;;;;;;30.15;35.95;95896.81;5095064;28;20425;-73